Flight Briefing for CPX103

Departure Arrival
Ted Stevens Anchorage International Airport (PANC)
Click to view FAA NOTAMS
Huntsville International Airport (KHSV)
Click to view FAA NOTAMS
Departure Time Arrival Time
N/A N/A
Aircraft Distance
B747-400BCF 2850nm
Departure METAR Arrival METAR
PANC 230653Z 16010KT 10SM SCT070 BKN100 BKN160 OVC200 11/01 A2996 RMK AO2 SLP145 T01110011 $ KHSV 230653Z AUTO 11006KT 10SM CLR 21/16 A3011 RMK AO2 SLP190 T02060161
Suggested Route
TED YESKA NCA13 YXY J515 YYE J537 YPE J601 XD YWV J475 VLN J483 MOT ABR Q19 DSM J45 IRK FAM J151 VUZ


View recent IFR Routes data
Notes



Charts and Procedures

Charts for PANC
No chart available
Charts for KHSV
No chart available

Windy.com Weather Map